sensor_id;sensor_type;location;lat;lon;timestamp;P1;P2;P0
65361;PMS5003;51961;54.960;73.462;2022-07-29T00:01:34;11.25;9.00;3.00
65361;PMS5003;51961;54.960;73.462;2022-07-29T00:04:36;9.00;8.00;4.00
65361;PMS5003;51961;54.960;73.462;2022-07-29T00:07:38;9.00;7.00;3.00
65361;PMS5003;51961;54.960;73.462;2022-07-29T00:10:45;10.00;8.00;3.00
65361;PMS5003;51961;54.960;73.462;2022-07-29T00:13:57;10.50;7.75;2.50
65361;PMS5003;51961;54.960;73.462;2022-07-29T00:16:59;7.00;7.00;3.00
65361;PMS5003;51961;54.960;73.462;2022-07-29T00:20:01;7.50;7.00;2.00
65361;PMS5003;51961;54.960;73.462;2022-07-29T00:23:03;9.00;7.00;3.00
65361;PMS5003;51961;54.960;73.462;2022-07-29T00:26:05;10.67;10.00;3.33
65361;PMS5003;51961;54.960;73.462;2022-07-29T00:29:09;11.50;6.00;2.00
65361;PMS5003;51961;54.960;73.462;2022-07-29T00:32:11;7.00;7.00;3.00
65361;PMS5003;51961;54.960;73.462;2022-07-29T00:35:20;5.00;5.00;2.00
65361;PMS5003;51961;54.960;73.462;2022-07-29T00:38:40;5.25;4.00;2.00
65361;PMS5003;51961;54.960;73.462;2022-07-29T00:41:45;5.00;4.00;2.00
65361;PMS5003;51961;54.960;73.462;2022-07-29T00:44:57;5.75;4.00;1.00
65361;PMS5003;51961;54.960;73.462;2022-07-29T00:48:10;4.50;4.00;0.50
65361;PMS5003;51961;54.960;73.462;2022-07-29T00:51:13;3.50;3.00;0.00
65361;PMS5003;51961;54.960;73.462;2022-07-29T00:54:17;3.33;3.00;0.00
65361;PMS5003;51961;54.960;73.462;2022-07-29T00:57:19;4.00;3.00;0.00
65361;PMS5003;51961;54.960;73.462;2022-07-29T01:00:23;1.00;1.00;0.00
65361;PMS5003;51961;54.960;73.462;2022-07-29T01:03:38;2.00;2.00;0.00
65361;PMS5003;51961;54.960;73.462;2022-07-29T01:06:40;2.00;2.00;0.00
65361;PMS5003;51961;54.960;73.462;2022-07-29T01:09:53;1.00;1.00;0.00
65361;PMS5003;51961;54.960;73.462;2022-07-29T01:13:07;2.67;0.67;0.00
65361;PMS5003;51961;54.960;73.462;2022-07-29T01:16:14;3.50;1.25;0.00
65361;PMS5003;51961;54.960;73.462;2022-07-29T01:29:24;2.00;2.00;0.00
65361;PMS5003;51961;54.960;73.462;2022-07-29T01:32:19;2.00;2.00;0.00
65361;PMS5003;51961;54.960;73.462;2022-07-29T01:35:24;2.00;2.00;0.00
65361;PMS5003;51961;54.960;73.462;2022-07-29T01:38:26;2.00;2.00;0.00
65361;PMS5003;51961;54.960;73.462;2022-07-29T01:41:30;4.00;4.00;0.00
65361;PMS5003;51961;54.960;73.462;2022-07-29T01:44:34;3.67;3.67;0.00
65361;PMS5003;51961;54.960;73.462;2022-07-29T01:51:38;5.00;3.25;0.00
65361;PMS5003;51961;54.960;73.462;2022-07-29T01:54:30;4.00;3.00;0.00
65361;PMS5003;51961;54.960;73.462;2022-07-29T01:57:33;5.00;3.00;1.00
65361;PMS5003;51961;54.960;73.462;2022-07-29T02:00:37;6.00;4.00;1.00
65361;PMS5003;51961;54.960;73.462;2022-07-29T02:03:45;7.00;5.00;1.50
65361;PMS5003;51961;54.960;73.462;2022-07-29T02:06:52;8.00;4.33;2.00
65361;PMS5003;51961;54.960;73.462;2022-07-29T02:09:55;6.00;3.00;1.00
65361;PMS5003;51961;54.960;73.462;2022-07-29T02:12:59;6.75;5.00;2.00
65361;PMS5003;51961;54.960;73.462;2022-07-29T02:16:02;5.00;4.00;2.00
65361;PMS5003;51961;54.960;73.462;2022-07-29T02:19:04;4.33;3.67;1.00
65361;PMS5003;51961;54.960;73.462;2022-07-29T02:22:11;7.00;5.00;2.00
65361;PMS5003;51961;54.960;73.462;2022-07-29T02:25:14;4.00;4.00;1.00
65361;PMS5003;51961;54.960;73.462;2022-07-29T02:28:18;5.00;5.00;1.00
65361;PMS5003;51961;54.960;73.462;2022-07-29T02:31:23;5.50;5.00;0.00
65361;PMS5003;51961;54.960;73.462;2022-07-29T02:34:27;4.50;3.75;0.25
65361;PMS5003;51961;54.960;73.462;2022-07-29T02:37:30;3.67;3.00;1.00
65361;PMS5003;51961;54.960;73.462;2022-07-29T02:40:33;4.00;4.00;1.00
65361;PMS5003;51961;54.960;73.462;2022-07-29T02:43:43;4.75;3.50;0.00
65361;PMS5003;51961;54.960;73.462;2022-07-29T02:49:57;5.00;5.00;1.00
65361;PMS5003;51961;54.960;73.462;2022-07-29T02:53:21;5.00;3.00;0.00
65361;PMS5003;51961;54.960;73.462;2022-07-29T02:56:25;4.00;3.00;0.00
65361;PMS5003;51961;54.960;73.462;2022-07-29T02:59:38;3.25;3.00;0.00
65361;PMS5003;51961;54.960;73.462;2022-07-29T03:02:44;6.33;6.33;0.00
65361;PMS5003;51961;54.960;73.462;2022-07-29T03:05:48;4.00;3.67;0.00
65361;PMS5003;51961;54.960;73.462;2022-07-29T03:09:00;3.25;3.00;0.00
65361;PMS5003;51961;54.960;73.462;2022-07-29T03:12:03;3.00;2.00;1.00
65361;PMS5003;51961;54.960;73.462;2022-07-29T03:15:05;2.67;2.67;0.00
65361;PMS5003;51961;54.960;73.462;2022-07-29T03:18:08;1.00;1.00;0.00
65361;PMS5003;51961;54.960;73.462;2022-07-29T03:21:10;2.00;2.00;0.00
65361;PMS5003;51961;54.960;73.462;2022-07-29T03:24:25;1.00;1.00;0.00
65361;PMS5003;51961;54.960;73.462;2022-07-29T03:27:28;0.00;0.00;0.00
65361;PMS5003;51961;54.960;73.462;2022-07-29T03:30:36;1.00;1.00;0.00
65361;PMS5003;51961;54.960;73.462;2022-07-29T03:33:38;1.00;0.33;0.00
65361;PMS5003;51961;54.960;73.462;2022-07-29T03:36:40;0.00;0.00;0.00
65361;PMS5003;51961;54.960;73.462;2022-07-29T03:39:42;0.00;0.00;0.00
65361;PMS5003;51961;54.960;73.462;2022-07-29T03:42:45;0.00;0.00;0.00
65361;PMS5003;51961;54.960;73.462;2022-07-29T03:45:49;0.00;0.00;0.00
65361;PMS5003;51961;54.960;73.462;2022-07-29T03:48:52;0.00;0.00;0.00
65361;PMS5003;51961;54.960;73.462;2022-07-29T03:51:58;2.00;0.00;0.00
65361;PMS5003;51961;54.960;73.462;2022-07-29T03:55:00;0.50;0.00;0.00
65361;PMS5003;51961;54.960;73.462;2022-07-29T03:58:03;0.00;0.00;0.00
65361;PMS5003;51961;54.960;73.462;2022-07-29T04:01:07;0.00;0.00;0.00
65361;PMS5003;51961;54.960;73.462;2022-07-29T04:04:09;2.00;2.00;0.00
65361;PMS5003;51961;54.960;73.462;2022-07-29T04:07:14;3.00;3.00;0.00
65361;PMS5003;51961;54.960;73.462;2022-07-29T04:10:28;5.75;4.75;0.00
65361;PMS5003;51961;54.960;73.462;2022-07-29T04:13:30;5.25;4.75;0.00
65361;PMS5003;51961;54.960;73.462;2022-07-29T04:16:37;9.00;7.00;1.67
65361;PMS5003;51961;54.960;73.462;2022-07-29T04:19:40;8.00;7.25;3.00
65361;PMS5003;51961;54.960;73.462;2022-07-29T04:22:47;12.25;10.75;4.00
65361;PMS5003;51961;54.960;73.462;2022-07-29T04:25:50;13.00;8.00;3.50
65361;PMS5003;51961;54.960;73.462;2022-07-29T04:28:53;14.00;9.50;4.50
65361;PMS5003;51961;54.960;73.462;2022-07-29T04:31:55;14.50;10.00;5.25
65361;PMS5003;51961;54.960;73.462;2022-07-29T04:34:58;17.00;12.00;6.00
65361;PMS5003;51961;54.960;73.462;2022-07-29T04:38:01;19.00;14.00;7.75
65361;PMS5003;51961;54.960;73.462;2022-07-29T04:41:10;20.75;17.50;8.00
65361;PMS5003;51961;54.960;73.462;2022-07-29T04:44:13;23.00;21.33;10.67
65361;PMS5003;51961;54.960;73.462;2022-07-29T04:47:16;20.00;18.25;7.25
65361;PMS5003;51961;54.960;73.462;2022-07-29T04:50:29;17.75;17.75;7.00
65361;PMS5003;51961;54.960;73.462;2022-07-29T04:53:31;18.50;18.50;7.50
65361;PMS5003;51961;54.960;73.462;2022-07-29T04:56:33;23.50;20.00;8.25
65361;PMS5003;51961;54.960;73.462;2022-07-29T04:59:36;21.00;19.00;9.25
65361;PMS5003;51961;54.960;73.462;2022-07-29T05:02:48;21.67;20.00;8.00
65361;PMS5003;51961;54.960;73.462;2022-07-29T05:05:50;23.00;20.00;10.00
65361;PMS5003;51961;54.960;73.462;2022-07-29T05:08:52;22.67;18.00;8.00
65361;PMS5003;51961;54.960;73.462;2022-07-29T05:12:02;20.00;18.00;8.00
65361;PMS5003;51961;54.960;73.462;2022-07-29T05:15:04;20.33;19.33;10.00
65361;PMS5003;51961;54.960;73.462;2022-07-29T05:18:06;22.33;20.67;7.00
65361;PMS5003;51961;54.960;73.462;2022-07-29T05:21:08;22.00;20.00;8.00
65361;PMS5003;51961;54.960;73.462;2022-07-29T05:24:15;20.50;18.25;8.00
65361;PMS5003;51961;54.960;73.462;2022-07-29T05:27:17;21.50;17.50;8.00
65361;PMS5003;51961;54.960;73.462;2022-07-29T05:30:19;20.33;18.00;8.00
65361;PMS5003;51961;54.960;73.462;2022-07-29T05:33:21;20.00;19.00;8.00
65361;PMS5003;51961;54.960;73.462;2022-07-29T05:36:23;17.00;17.00;7.67
65361;PMS5003;51961;54.960;73.462;2022-07-29T05:39:26;18.00;16.00;8.00
65361;PMS5003;51961;54.960;73.462;2022-07-29T05:42:30;19.00;17.00;7.00
65361;PMS5003;51961;54.960;73.462;2022-07-29T05:45:33;21.25;19.75;8.00
65361;PMS5003;51961;54.960;73.462;2022-07-29T05:48:36;20.75;18.50;8.00
65361;PMS5003;51961;54.960;73.462;2022-07-29T05:51:40;22.75;18.00;7.75
65361;PMS5003;51961;54.960;73.462;2022-07-29T05:54:43;21.00;18.00;8.00
65361;PMS5003;51961;54.960;73.462;2022-07-29T05:57:45;21.75;19.00;7.00
65361;PMS5003;51961;54.960;73.462;2022-07-29T06:00:52;21.00;19.50;8.00
65361;PMS5003;51961;54.960;73.462;2022-07-29T06:03:54;19.00;18.00;7.25
65361;PMS5003;51961;54.960;73.462;2022-07-29T06:07:07;20.00;20.00;8.00
65361;PMS5003;51961;54.960;73.462;2022-07-29T06:10:09;20.00;20.00;8.00
65361;PMS5003;51961;54.960;73.462;2022-07-29T06:13:22;18.00;18.00;9.00
65361;PMS5003;51961;54.960;73.462;2022-07-29T06:16:24;20.00;18.00;8.00
65361;PMS5003;51961;54.960;73.462;2022-07-29T06:19:26;20.00;18.75;8.50
65361;PMS5003;51961;54.960;73.462;2022-07-29T06:22:28;19.00;18.00;9.67
65361;PMS5003;51961;54.960;73.462;2022-07-29T06:25:31;19.00;18.00;8.00
65361;PMS5003;51961;54.960;73.462;2022-07-29T06:28:44;22.00;21.25;8.50
65361;PMS5003;51961;54.960;73.462;2022-07-29T06:31:47;22.00;19.67;8.00
65361;PMS5003;51961;54.960;73.462;2022-07-29T06:35:00;21.00;19.00;9.00
65361;PMS5003;51961;54.960;73.462;2022-07-29T06:38:02;21.00;18.00;9.00
65361;PMS5003;51961;54.960;73.462;2022-07-29T06:41:09;23.00;19.00;8.50
65361;PMS5003;51961;54.960;73.462;2022-07-29T06:44:14;20.00;18.00;8.00
65361;PMS5003;51961;54.960;73.462;2022-07-29T06:47:15;18.00;18.00;8.00
65361;PMS5003;51961;54.960;73.462;2022-07-29T06:50:28;21.75;20.50;9.00
65361;PMS5003;51961;54.960;73.462;2022-07-29T06:53:31;21.75;20.50;8.50
65361;PMS5003;51961;54.960;73.462;2022-07-29T06:56:34;22.00;19.00;9.00
65361;PMS5003;51961;54.960;73.462;2022-07-29T06:59:39;21.33;19.00;7.00
65361;PMS5003;51961;54.960;73.462;2022-07-29T07:02:42;19.33;18.00;7.33
65361;PMS5003;51961;54.960;73.462;2022-07-29T07:05:44;20.00;19.00;8.33
65361;PMS5003;51961;54.960;73.462;2022-07-29T07:08:47;21.00;19.00;10.00
65361;PMS5003;51961;54.960;73.462;2022-07-29T07:11:50;21.00;20.25;7.25
65361;PMS5003;51961;54.960;73.462;2022-07-29T07:14:57;21.00;21.00;7.00
65361;PMS5003;51961;54.960;73.462;2022-07-29T07:18:09;19.25;18.50;8.50
65361;PMS5003;51961;54.960;73.462;2022-07-29T07:21:11;20.00;18.33;8.00
65361;PMS5003;51961;54.960;73.462;2022-07-29T07:24:14;20.00;19.33;7.00
65361;PMS5003;51961;54.960;73.462;2022-07-29T07:27:16;19.00;19.00;7.75
65361;PMS5003;51961;54.960;73.462;2022-07-29T07:30:28;20.00;18.00;8.00
65361;PMS5003;51961;54.960;73.462;2022-07-29T07:33:31;19.33;18.00;8.00
65361;PMS5003;51961;54.960;73.462;2022-07-29T07:36:33;22.50;21.25;9.25
65361;PMS5003;51961;54.960;73.462;2022-07-29T07:39:35;22.00;19.00;9.00
65361;PMS5003;51961;54.960;73.462;2022-07-29T07:42:38;19.50;18.25;9.75
65361;PMS5003;51961;54.960;73.462;2022-07-29T07:45:39;21.75;20.50;10.00
65361;PMS5003;51961;54.960;73.462;2022-07-29T07:48:42;19.25;19.25;8.25
65361;PMS5003;51961;54.960;73.462;2022-07-29T07:51:44;21.00;20.00;7.00
65361;PMS5003;51961;54.960;73.462;2022-07-29T07:54:47;19.00;18.00;8.00
65361;PMS5003;51961;54.960;73.462;2022-07-29T07:57:50;19.00;18.00;8.00
65361;PMS5003;51961;54.960;73.462;2022-07-29T08:00:56;21.00;20.00;9.25
65361;PMS5003;51961;54.960;73.462;2022-07-29T08:04:06;22.00;21.00;8.00
65361;PMS5003;51961;54.960;73.462;2022-07-29T08:07:09;20.00;19.00;8.33
65361;PMS5003;51961;54.960;73.462;2022-07-29T08:10:13;19.00;16.67;7.00
65361;PMS5003;51961;54.960;73.462;2022-07-29T08:13:15;17.00;16.00;7.67
65361;PMS5003;51961;54.960;73.462;2022-07-29T08:16:17;18.00;17.00;8.00
65361;PMS5003;51961;54.960;73.462;2022-07-29T08:19:29;20.00;17.00;8.00
65361;PMS5003;51961;54.960;73.462;2022-07-29T08:22:33;20.00;18.00;8.00
65361;PMS5003;51961;54.960;73.462;2022-07-29T08:25:35;20.00;19.00;8.00
65361;PMS5003;51961;54.960;73.462;2022-07-29T08:28:38;19.00;18.00;8.00
65361;PMS5003;51961;54.960;73.462;2022-07-29T08:31:40;18.25;18.00;7.00
65361;PMS5003;51961;54.960;73.462;2022-07-29T08:34:53;18.00;18.00;7.00
65361;PMS5003;51961;54.960;73.462;2022-07-29T08:37:56;17.00;17.00;7.75
65361;PMS5003;51961;54.960;73.462;2022-07-29T08:41:02;18.00;16.00;8.00
65361;PMS5003;51961;54.960;73.462;2022-07-29T08:44:05;20.00;18.67;10.00
65361;PMS5003;51961;54.960;73.462;2022-07-29T08:47:08;19.50;17.50;8.75
65361;PMS5003;51961;54.960;73.462;2022-07-29T08:50:10;19.00;18.00;9.50
65361;PMS5003;51961;54.960;73.462;2022-07-29T08:53:15;18.33;17.33;9.00
65361;PMS5003;51961;54.960;73.462;2022-07-29T08:56:17;21.75;20.75;10.00
65361;PMS5003;51961;54.960;73.462;2022-07-29T08:59:20;21.67;20.33;9.00
65361;PMS5003;51961;54.960;73.462;2022-07-29T09:02:23;21.33;20.00;9.00
65361;PMS5003;51961;54.960;73.462;2022-07-29T09:05:27;21.00;19.00;7.33
65361;PMS5003;51961;54.960;73.462;2022-07-29T09:08:31;22.00;19.00;9.25
65361;PMS5003;51961;54.960;73.462;2022-07-29T09:11:35;19.00;19.00;10.75
65361;PMS5003;51961;54.960;73.462;2022-07-29T09:14:44;19.00;19.00;12.00
65361;PMS5003;51961;54.960;73.462;2022-07-29T09:17:47;17.00;17.00;8.00
65361;PMS5003;51961;54.960;73.462;2022-07-29T09:20:51;21.50;19.00;8.00
65361;PMS5003;51961;54.960;73.462;2022-07-29T09:24:18;22.00;19.00;9.00
65361;PMS5003;51961;54.960;73.462;2022-07-29T09:27:21;20.00;18.00;8.00
65361;PMS5003;51961;54.960;73.462;2022-07-29T09:30:24;19.50;18.50;8.00
65361;PMS5003;51961;54.960;73.462;2022-07-29T09:33:33;23.00;21.00;9.25
65361;PMS5003;51961;54.960;73.462;2022-07-29T09:39:44;20.75;20.00;9.00
65361;PMS5003;51961;54.960;73.462;2022-07-29T09:42:48;21.00;21.00;9.00
65361;PMS5003;51961;54.960;73.462;2022-07-29T09:45:53;18.25;17.25;9.00
65361;PMS5003;51961;54.960;73.462;2022-07-29T09:52:16;20.00;18.75;7.00
65361;PMS5003;51961;54.960;73.462;2022-07-29T09:55:23;20.00;19.00;7.25
65361;PMS5003;51961;54.960;73.462;2022-07-29T09:58:25;18.00;17.00;8.00
65361;PMS5003;51961;54.960;73.462;2022-07-29T10:01:28;20.00;18.00;8.00
65361;PMS5003;51961;54.960;73.462;2022-07-29T10:04:41;22.50;18.75;9.00
65361;PMS5003;51961;54.960;73.462;2022-07-29T10:07:50;21.00;20.00;8.25
65361;PMS5003;51961;54.960;73.462;2022-07-29T10:11:03;21.00;20.00;10.00
65361;PMS5003;51961;54.960;73.462;2022-07-29T10:14:09;20.00;19.75;9.75
65361;PMS5003;51961;54.960;73.462;2022-07-29T10:17:11;21.00;21.00;11.75
65361;PMS5003;51961;54.960;73.462;2022-07-29T10:20:14;20.00;20.00;10.00
65361;PMS5003;51961;54.960;73.462;2022-07-29T10:23:17;22.00;20.33;10.67
65361;PMS5003;51961;54.960;73.462;2022-07-29T10:26:20;23.00;22.00;11.25
65361;PMS5003;51961;54.960;73.462;2022-07-29T10:29:23;24.00;22.00;10.00
65361;PMS5003;51961;54.960;73.462;2022-07-29T10:36:07;21.00;20.00;9.00
65361;PMS5003;51961;54.960;73.462;2022-07-29T10:42:27;21.25;19.25;8.25
65361;PMS5003;51961;54.960;73.462;2022-07-29T10:45:30;22.00;20.00;7.00
65361;PMS5003;51961;54.960;73.462;2022-07-29T10:52:06;22.75;20.00;8.50
65361;PMS5003;51961;54.960;73.462;2022-07-29T10:55:08;21.00;21.00;8.00
65361;PMS5003;51961;54.960;73.462;2022-07-29T10:58:40;20.00;20.00;7.50
65361;PMS5003;51961;54.960;73.462;2022-07-29T11:01:42;21.00;19.50;9.50
65361;PMS5003;51961;54.960;73.462;2022-07-29T11:14:56;18.50;17.00;7.00
65361;PMS5003;51961;54.960;73.462;2022-07-29T11:21:02;19.00;17.00;7.00
65361;PMS5003;51961;54.960;73.462;2022-07-29T11:24:18;21.00;19.00;7.00
65361;PMS5003;51961;54.960;73.462;2022-07-29T11:27:23;19.00;18.67;7.00
65361;PMS5003;51961;54.960;73.462;2022-07-29T11:30:48;20.00;18.00;8.00
65361;PMS5003;51961;54.960;73.462;2022-07-29T11:34:19;19.00;17.00;7.00
65361;PMS5003;51961;54.960;73.462;2022-07-29T11:37:22;19.00;17.00;7.00
65361;PMS5003;51961;54.960;73.462;2022-07-29T11:40:25;18.00;17.00;6.00
65361;PMS5003;51961;54.960;73.462;2022-07-29T11:43:50;18.00;17.00;7.00
65361;PMS5003;51961;54.960;73.462;2022-07-29T11:46:51;18.00;17.00;7.00
65361;PMS5003;51961;54.960;73.462;2022-07-29T11:49:56;17.00;16.75;9.00
65361;PMS5003;51961;54.960;73.462;2022-07-29T11:53:10;19.00;17.33;6.33
65361;PMS5003;51961;54.960;73.462;2022-07-29T11:56:13;18.00;16.00;6.00
65361;PMS5003;51961;54.960;73.462;2022-07-29T11:59:17;16.50;12.00;6.00
65361;PMS5003;51961;54.960;73.462;2022-07-29T12:02:20;17.00;13.00;5.00
65361;PMS5003;51961;54.960;73.462;2022-07-29T12:05:33;16.00;12.25;6.00
65361;PMS5003;51961;54.960;73.462;2022-07-29T12:08:46;16.50;13.00;5.00
65361;PMS5003;51961;54.960;73.462;2022-07-29T12:11:59;18.00;14.00;5.00
65361;PMS5003;51961;54.960;73.462;2022-07-29T12:15:16;17.00;13.00;6.00
65361;PMS5003;51961;54.960;73.462;2022-07-29T12:18:23;19.00;14.75;7.00
65361;PMS5003;51961;54.960;73.462;2022-07-29T12:21:26;18.00;14.00;6.00
65361;PMS5003;51961;54.960;73.462;2022-07-29T12:24:42;16.50;15.25;5.50
65361;PMS5003;51961;54.960;73.462;2022-07-29T12:27:45;15.00;12.00;5.00
65361;PMS5003;51961;54.960;73.462;2022-07-29T12:30:48;16.00;14.00;5.00
65361;PMS5003;51961;54.960;73.462;2022-07-29T12:33:56;14.00;13.00;5.00
65361;PMS5003;51961;54.960;73.462;2022-07-29T12:36:59;11.75;11.25;5.00
65361;PMS5003;51961;54.960;73.462;2022-07-29T12:40:04;15.75;14.75;6.00
65361;PMS5003;51961;54.960;73.462;2022-07-29T12:46:14;14.25;11.00;4.00
65361;PMS5003;51961;54.960;73.462;2022-07-29T12:49:23;16.00;10.00;6.00
65361;PMS5003;51961;54.960;73.462;2022-07-29T12:52:36;16.00;11.00;5.00
65361;PMS5003;51961;54.960;73.462;2022-07-29T12:58:52;12.00;9.00;4.00
65361;PMS5003;51961;54.960;73.462;2022-07-29T13:01:55;12.75;11.75;5.00
65361;PMS5003;51961;54.960;73.462;2022-07-29T13:04:59;10.25;9.25;4.50
65361;PMS5003;51961;54.960;73.462;2022-07-29T13:08:15;8.00;7.25;5.00
65361;PMS5003;51961;54.960;73.462;2022-07-29T13:11:29;9.50;9.00;4.00
65361;PMS5003;51961;54.960;73.462;2022-07-29T13:14:42;10.00;8.00;4.00
65361;PMS5003;51961;54.960;73.462;2022-07-29T13:17:45;9.00;8.00;5.00
65361;PMS5003;51961;54.960;73.462;2022-07-29T13:20:48;9.75;8.50;5.00
65361;PMS5003;51961;54.960;73.462;2022-07-29T13:23:55;9.00;9.00;4.00
65361;PMS5003;51961;54.960;73.462;2022-07-29T13:27:02;8.00;7.25;3.00
65361;PMS5003;51961;54.960;73.462;2022-07-29T13:30:15;8.00;7.25;4.00
65361;PMS5003;51961;54.960;73.462;2022-07-29T13:33:17;7.00;6.00;4.00
65361;PMS5003;51961;54.960;73.462;2022-07-29T13:36:25;9.00;8.00;5.00
65361;PMS5003;51961;54.960;73.462;2022-07-29T13:39:29;8.50;8.00;4.25
65361;PMS5003;51961;54.960;73.462;2022-07-29T13:42:32;8.50;8.00;4.00
65361;PMS5003;51961;54.960;73.462;2022-07-29T13:45:35;9.00;7.25;3.00
65361;PMS5003;51961;54.960;73.462;2022-07-29T13:48:37;8.00;8.00;4.00
65361;PMS5003;51961;54.960;73.462;2022-07-29T13:51:40;6.50;6.50;4.00
65361;PMS5003;51961;54.960;73.462;2022-07-29T13:54:43;9.25;8.00;4.00
65361;PMS5003;51961;54.960;73.462;2022-07-29T13:57:46;11.00;9.00;4.25
65361;PMS5003;51961;54.960;73.462;2022-07-29T14:00:50;7.50;7.00;3.00
65361;PMS5003;51961;54.960;73.462;2022-07-29T14:04:03;7.00;6.00;4.00
65361;PMS5003;51961;54.960;73.462;2022-07-29T14:07:06;9.00;7.00;4.00
65361;PMS5003;51961;54.960;73.462;2022-07-29T14:10:09;8.00;7.00;2.75
65361;PMS5003;51961;54.960;73.462;2022-07-29T14:13:12;8.50;6.75;3.75
65361;PMS5003;51961;54.960;73.462;2022-07-29T14:16:15;9.00;9.00;4.00
65361;PMS5003;51961;54.960;73.462;2022-07-29T14:19:18;6.50;6.50;4.00
65361;PMS5003;51961;54.960;73.462;2022-07-29T14:22:21;7.00;6.00;3.00
65361;PMS5003;51961;54.960;73.462;2022-07-29T14:25:24;8.00;5.00;3.00
65361;PMS5003;51961;54.960;73.462;2022-07-29T14:28:25;8.00;6.75;4.75
65361;PMS5003;51961;54.960;73.462;2022-07-29T14:31:28;7.00;6.75;3.00
65361;PMS5003;51961;54.960;73.462;2022-07-29T14:34:31;7.50;7.50;3.50
65361;PMS5003;51961;54.960;73.462;2022-07-29T14:37:34;7.75;5.75;3.75
65361;PMS5003;51961;54.960;73.462;2022-07-29T14:40:37;8.25;7.75;3.00
65361;PMS5003;51961;54.960;73.462;2022-07-29T14:43:40;9.00;8.00;4.00
65361;PMS5003;51961;54.960;73.462;2022-07-29T14:46:43;8.00;6.00;3.00
65361;PMS5003;51961;54.960;73.462;2022-07-29T14:49:47;6.00;5.00;3.00
65361;PMS5003;51961;54.960;73.462;2022-07-29T14:53:00;8.00;8.00;4.75
65361;PMS5003;51961;54.960;73.462;2022-07-29T14:56:03;7.50;6.00;2.00
65361;PMS5003;51961;54.960;73.462;2022-07-29T14:59:06;7.00;7.00;3.00
65361;PMS5003;51961;54.960;73.462;2022-07-29T15:02:09;6.75;6.75;3.00
65361;PMS5003;51961;54.960;73.462;2022-07-29T15:05:12;6.75;5.50;2.25
65361;PMS5003;51961;54.960;73.462;2022-07-29T15:08:13;5.25;5.25;2.50
65361;PMS5003;51961;54.960;73.462;2022-07-29T15:11:15;7.00;6.25;2.50
65361;PMS5003;51961;54.960;73.462;2022-07-29T15:14:18;7.00;7.00;2.00
65361;PMS5003;51961;54.960;73.462;2022-07-29T15:17:20;7.50;7.00;3.00
65361;PMS5003;51961;54.960;73.462;2022-07-29T15:20:23;7.75;7.00;4.00
65361;PMS5003;51961;54.960;73.462;2022-07-29T15:23:28;6.50;6.50;1.00
65361;PMS5003;51961;54.960;73.462;2022-07-29T15:26:30;6.00;6.00;1.00
65361;PMS5003;51961;54.960;73.462;2022-07-29T15:29:31;5.00;4.25;2.00
65361;PMS5003;51961;54.960;73.462;2022-07-29T15:32:34;5.00;5.00;2.00
65361;PMS5003;51961;54.960;73.462;2022-07-29T15:35:36;5.00;5.00;2.00
65361;PMS5003;51961;54.960;73.462;2022-07-29T15:38:38;4.00;3.50;1.00
65361;PMS5003;51961;54.960;73.462;2022-07-29T15:41:41;6.00;5.25;2.00
65361;PMS5003;51961;54.960;73.462;2022-07-29T15:44:43;3.00;3.00;1.00
65361;PMS5003;51961;54.960;73.462;2022-07-29T15:47:45;5.00;3.00;1.00
65361;PMS5003;51961;54.960;73.462;2022-07-29T15:50:47;4.67;4.67;1.00
65361;PMS5003;51961;54.960;73.462;2022-07-29T15:53:49;2.00;2.00;0.00
65361;PMS5003;51961;54.960;73.462;2022-07-29T15:57:03;4.00;4.00;0.00
65361;PMS5003;51961;54.960;73.462;2022-07-29T16:00:06;4.00;4.00;0.00
65361;PMS5003;51961;54.960;73.462;2022-07-29T16:03:09;4.00;4.00;0.00
65361;PMS5003;51961;54.960;73.462;2022-07-29T16:06:15;4.50;4.50;0.00
65361;PMS5003;51961;54.960;73.462;2022-07-29T16:09:18;4.00;4.00;0.00
65361;PMS5003;51961;54.960;73.462;2022-07-29T16:12:19;3.00;2.25;1.00
65361;PMS5003;51961;54.960;73.462;2022-07-29T16:15:21;3.67;3.67;1.00
65361;PMS5003;51961;54.960;73.462;2022-07-29T16:18:23;4.00;4.00;1.00
65361;PMS5003;51961;54.960;73.462;2022-07-29T16:21:26;5.00;5.00;1.00
65361;PMS5003;51961;54.960;73.462;2022-07-29T16:24:28;4.00;3.00;1.00
65361;PMS5003;51961;54.960;73.462;2022-07-29T16:27:42;4.00;3.00;1.00
65361;PMS5003;51961;54.960;73.462;2022-07-29T16:30:48;4.33;4.00;2.00
65361;PMS5003;51961;54.960;73.462;2022-07-29T16:33:53;5.25;4.75;3.00
65361;PMS5003;51961;54.960;73.462;2022-07-29T16:36:55;6.00;4.00;2.00
65361;PMS5003;51961;54.960;73.462;2022-07-29T16:39:57;5.25;5.00;2.00
65361;PMS5003;51961;54.960;73.462;2022-07-29T16:42:59;3.00;3.00;2.00
65361;PMS5003;51961;54.960;73.462;2022-07-29T16:46:02;4.50;4.00;1.00
65361;PMS5003;51961;54.960;73.462;2022-07-29T16:49:04;4.00;4.00;1.00
65361;PMS5003;51961;54.960;73.462;2022-07-29T16:52:14;4.00;3.50;1.00
65361;PMS5003;51961;54.960;73.462;2022-07-29T16:55:16;3.00;2.00;1.00
65361;PMS5003;51961;54.960;73.462;2022-07-29T16:58:18;4.00;2.67;1.00
65361;PMS5003;51961;54.960;73.462;2022-07-29T17:01:20;5.00;3.00;1.00
65361;PMS5003;51961;54.960;73.462;2022-07-29T17:04:33;5.00;3.67;0.67
65361;PMS5003;51961;54.960;73.462;2022-07-29T17:07:35;4.00;3.50;1.00
65361;PMS5003;51961;54.960;73.462;2022-07-29T17:10:42;3.67;3.67;1.00
65361;PMS5003;51961;54.960;73.462;2022-07-29T17:13:49;4.00;2.00;0.00
65361;PMS5003;51961;54.960;73.462;2022-07-29T17:16:57;4.00;4.00;0.00
65361;PMS5003;51961;54.960;73.462;2022-07-29T17:20:03;4.00;4.00;0.00
65361;PMS5003;51961;54.960;73.462;2022-07-29T17:23:06;6.00;6.00;0.00
65361;PMS5003;51961;54.960;73.462;2022-07-29T17:26:08;3.00;3.00;1.00
65361;PMS5003;51961;54.960;73.462;2022-07-29T17:29:10;2.67;2.67;1.00
65361;PMS5003;51961;54.960;73.462;2022-07-29T17:32:12;1.75;1.75;0.00
65361;PMS5003;51961;54.960;73.462;2022-07-29T17:35:15;3.00;3.00;0.00
65361;PMS5003;51961;54.960;73.462;2022-07-29T17:38:36;2.00;2.00;0.00
65361;PMS5003;51961;54.960;73.462;2022-07-29T17:41:49;2.00;2.00;0.00
65361;PMS5003;51961;54.960;73.462;2022-07-29T17:44:52;3.33;2.33;0.00
65361;PMS5003;51961;54.960;73.462;2022-07-29T17:47:53;3.00;2.00;1.00
65361;PMS5003;51961;54.960;73.462;2022-07-29T17:50:57;3.00;3.00;1.00
65361;PMS5003;51961;54.960;73.462;2022-07-29T17:53:59;4.00;2.00;0.00
65361;PMS5003;51961;54.960;73.462;2022-07-29T17:57:02;2.25;2.00;0.00
65361;PMS5003;51961;54.960;73.462;2022-07-29T18:00:05;1.50;1.00;0.00
65361;PMS5003;51961;54.960;73.462;2022-07-29T18:03:08;2.50;2.50;0.00
65361;PMS5003;51961;54.960;73.462;2022-07-29T18:06:11;3.00;2.75;0.00
65361;PMS5003;51961;54.960;73.462;2022-07-29T18:09:14;2.00;2.00;0.00
65361;PMS5003;51961;54.960;73.462;2022-07-29T18:12:16;3.00;2.00;0.00
65361;PMS5003;51961;54.960;73.462;2022-07-29T18:15:23;2.00;1.00;0.00
65361;PMS5003;51961;54.960;73.462;2022-07-29T18:18:27;2.00;1.00;0.00
65361;PMS5003;51961;54.960;73.462;2022-07-29T18:21:30;2.00;1.00;0.00
65361;PMS5003;51961;54.960;73.462;2022-07-29T18:24:32;2.00;2.00;0.00
65361;PMS5003;51961;54.960;73.462;2022-07-29T18:27:36;2.00;1.00;0.00